sensor_id;sensor_type;location;lat;lon;timestamp;P1;durP1;ratioP1;P2;durP2;ratioP2
1410;SDS011;700;51.906;8.404;2024-03-23T00:56:40;9.73;;;5.53;;
1410;SDS011;700;51.906;8.404;2024-03-23T01:01:41;11.13;;;4.10;;
1410;SDS011;700;51.906;8.404;2024-03-23T01:06:41;7.90;;;3.93;;
1410;SDS011;700;51.906;8.404;2024-03-23T01:11:42;10.83;;;3.53;;
1410;SDS011;700;51.906;8.404;2024-03-23T01:16:47;10.27;;;4.00;;
1410;SDS011;700;51.906;8.404;2024-03-23T01:21:52;10.00;;;3.63;;
1410;SDS011;700;51.906;8.404;2024-03-23T01:26:55;10.17;;;4.37;;
1410;SDS011;700;51.906;8.404;2024-03-23T01:31:56;10.63;;;3.47;;
1410;SDS011;700;51.906;8.404;2024-03-23T01:37:01;8.60;;;3.67;;
1410;SDS011;700;51.906;8.404;2024-03-23T01:42:07;9.90;;;3.67;;
1410;SDS011;700;51.906;8.404;2024-03-23T01:47:07;16.43;;;3.37;;
1410;SDS011;700;51.906;8.404;2024-03-23T01:52:08;8.87;;;2.73;;
1410;SDS011;700;51.906;8.404;2024-03-23T01:57:09;13.17;;;4.10;;
1410;SDS011;700;51.906;8.404;2024-03-23T02:02:14;9.57;;;3.03;;
1410;SDS011;700;51.906;8.404;2024-03-23T02:07:14;13.10;;;4.30;;
1410;SDS011;700;51.906;8.404;2024-03-23T02:12:17;7.93;;;2.87;;
1410;SDS011;700;51.906;8.404;2024-03-23T02:17:21;12.50;;;4.07;;
1410;SDS011;700;51.906;8.404;2024-03-23T02:22:21;12.93;;;3.90;;
1410;SDS011;700;51.906;8.404;2024-03-23T02:27:24;7.87;;;3.00;;
1410;SDS011;700;51.906;8.404;2024-03-23T02:32:27;11.70;;;3.50;;
1410;SDS011;700;51.906;8.404;2024-03-23T02:37:28;4.97;;;2.33;;
1410;SDS011;700;51.906;8.404;2024-03-23T02:42:28;6.87;;;2.90;;
1410;SDS011;700;51.906;8.404;2024-03-23T02:47:29;8.10;;;2.90;;
1410;SDS011;700;51.906;8.404;2024-03-23T02:52:29;10.30;;;2.77;;
1410;SDS011;700;51.906;8.404;2024-03-23T02:57:30;9.70;;;3.20;;
1410;SDS011;700;51.906;8.404;2024-03-23T03:02:31;9.67;;;3.40;;
1410;SDS011;700;51.906;8.404;2024-03-23T03:07:34;6.30;;;2.40;;
1410;SDS011;700;51.906;8.404;2024-03-23T03:12:39;11.73;;;4.50;;
1410;SDS011;700;51.906;8.404;2024-03-23T03:17:42;9.20;;;3.57;;
1410;SDS011;700;51.906;8.404;2024-03-23T03:22:47;7.30;;;2.00;;
1410;SDS011;700;51.906;8.404;2024-03-23T03:27:50;4.63;;;2.30;;
1410;SDS011;700;51.906;8.404;2024-03-23T03:32:55;8.30;;;2.27;;
1410;SDS011;700;51.906;8.404;2024-03-23T03:37:56;5.87;;;1.73;;
1410;SDS011;700;51.906;8.404;2024-03-23T03:42:56;7.40;;;2.20;;
1410;SDS011;700;51.906;8.404;2024-03-23T03:47:57;6.40;;;2.37;;
1410;SDS011;700;51.906;8.404;2024-03-23T03:53:00;7.70;;;2.07;;
1410;SDS011;700;51.906;8.404;2024-03-23T03:58:01;7.00;;;2.20;;
1410;SDS011;700;51.906;8.404;2024-03-23T04:03:02;4.57;;;2.00;;
1410;SDS011;700;51.906;8.404;2024-03-23T04:08:06;5.87;;;2.23;;
1410;SDS011;700;51.906;8.404;2024-03-23T04:13:09;5.80;;;2.03;;
1410;SDS011;700;51.906;8.404;2024-03-23T04:18:12;6.77;;;1.80;;
1410;SDS011;700;51.906;8.404;2024-03-23T04:23:15;8.63;;;2.40;;
1410;SDS011;700;51.906;8.404;2024-03-23T04:28:15;7.37;;;2.10;;
1410;SDS011;700;51.906;8.404;2024-03-23T04:33:16;6.40;;;2.00;;
1410;SDS011;700;51.906;8.404;2024-03-23T04:38:16;4.93;;;2.03;;
1410;SDS011;700;51.906;8.404;2024-03-23T04:43:17;5.00;;;2.40;;
1410;SDS011;700;51.906;8.404;2024-03-23T04:48:21;7.67;;;2.90;;
1410;SDS011;700;51.906;8.404;2024-03-23T04:53:22;4.87;;;1.87;;
1410;SDS011;700;51.906;8.404;2024-03-23T04:58:28;8.67;;;2.53;;
1410;SDS011;700;51.906;8.404;2024-03-23T05:03:28;7.50;;;2.60;;
1410;SDS011;700;51.906;8.404;2024-03-23T05:08:29;5.13;;;2.47;;
1410;SDS011;700;51.906;8.404;2024-03-23T05:13:31;8.80;;;2.67;;
1410;SDS011;700;51.906;8.404;2024-03-23T05:18:32;10.83;;;2.70;;
1410;SDS011;700;51.906;8.404;2024-03-23T05:23:40;7.60;;;2.73;;
1410;SDS011;700;51.906;8.404;2024-03-23T05:28:40;7.20;;;2.73;;
1410;SDS011;700;51.906;8.404;2024-03-23T05:33:43;8.50;;;2.60;;
1410;SDS011;700;51.906;8.404;2024-03-23T05:38:48;6.03;;;2.13;;
1410;SDS011;700;51.906;8.404;2024-03-23T05:43:53;5.50;;;2.60;;
1410;SDS011;700;51.906;8.404;2024-03-23T05:48:57;7.73;;;2.60;;
1410;SDS011;700;51.906;8.404;2024-03-23T05:54:02;10.00;;;3.00;;
1410;SDS011;700;51.906;8.404;2024-03-23T05:59:03;7.60;;;2.47;;
1410;SDS011;700;51.906;8.404;2024-03-23T06:04:09;10.30;;;3.47;;
1410;SDS011;700;51.906;8.404;2024-03-23T06:09:09;7.60;;;2.33;;
1410;SDS011;700;51.906;8.404;2024-03-23T06:14:15;9.93;;;3.60;;
1410;SDS011;700;51.906;8.404;2024-03-23T06:19:18;10.60;;;3.23;;
1410;SDS011;700;51.906;8.404;2024-03-23T06:24:18;12.70;;;4.13;;
1410;SDS011;700;51.906;8.404;2024-03-23T06:29:20;11.27;;;4.70;;
1410;SDS011;700;51.906;8.404;2024-03-23T06:34:23;10.33;;;4.60;;
1410;SDS011;700;51.906;8.404;2024-03-23T06:39:23;14.40;;;6.33;;
1410;SDS011;700;51.906;8.404;2024-03-23T06:44:24;16.20;;;6.97;;
1410;SDS011;700;51.906;8.404;2024-03-23T06:49:29;16.37;;;6.90;;
1410;SDS011;700;51.906;8.404;2024-03-23T06:54:30;17.23;;;7.13;;
1410;SDS011;700;51.906;8.404;2024-03-23T06:59:31;13.90;;;7.27;;
1410;SDS011;700;51.906;8.404;2024-03-23T07:04:31;17.77;;;8.17;;
1410;SDS011;700;51.906;8.404;2024-03-23T07:09:32;20.70;;;8.87;;
1410;SDS011;700;51.906;8.404;2024-03-23T07:14:33;19.57;;;8.93;;
1410;SDS011;700;51.906;8.404;2024-03-23T07:19:34;17.27;;;9.00;;
1410;SDS011;700;51.906;8.404;2024-03-23T07:24:35;20.27;;;9.03;;
1410;SDS011;700;51.906;8.404;2024-03-23T07:29:39;24.67;;;9.83;;
1410;SDS011;700;51.906;8.404;2024-03-23T07:34:42;18.80;;;8.77;;
1410;SDS011;700;51.906;8.404;2024-03-23T07:39:44;16.17;;;8.60;;
1410;SDS011;700;51.906;8.404;2024-03-23T07:44:47;16.60;;;9.00;;
1410;SDS011;700;51.906;8.404;2024-03-23T07:49:49;17.20;;;9.60;;
1410;SDS011;700;51.906;8.404;2024-03-23T07:54:54;13.83;;;8.20;;
1410;SDS011;700;51.906;8.404;2024-03-23T07:59:55;15.70;;;6.80;;
1410;SDS011;700;51.906;8.404;2024-03-23T08:04:58;19.53;;;10.10;;
1410;SDS011;700;51.906;8.404;2024-03-23T08:09:58;16.40;;;6.97;;
1410;SDS011;700;51.906;8.404;2024-03-23T08:15:00;12.90;;;6.53;;
1410;SDS011;700;51.906;8.404;2024-03-23T08:20:03;11.17;;;6.00;;
1410;SDS011;700;51.906;8.404;2024-03-23T08:25:04;15.50;;;7.10;;
1410;SDS011;700;51.906;8.404;2024-03-23T08:30:06;11.20;;;6.10;;
1410;SDS011;700;51.906;8.404;2024-03-23T08:35:07;15.00;;;6.00;;
1410;SDS011;700;51.906;8.404;2024-03-23T08:40:08;11.70;;;5.53;;
1410;SDS011;700;51.906;8.404;2024-03-23T08:45:11;11.70;;;5.30;;
1410;SDS011;700;51.906;8.404;2024-03-23T08:50:12;12.63;;;5.63;;
1410;SDS011;700;51.906;8.404;2024-03-23T08:55:13;10.33;;;4.50;;
1410;SDS011;700;51.906;8.404;2024-03-23T09:00:16;8.40;;;4.53;;
1410;SDS011;700;51.906;8.404;2024-03-23T09:05:19;10.03;;;4.10;;
1410;SDS011;700;51.906;8.404;2024-03-23T09:10:22;8.53;;;3.77;;
1410;SDS011;700;51.906;8.404;2024-03-23T09:15:25;6.90;;;3.90;;
1410;SDS011;700;51.906;8.404;2024-03-23T09:20:29;14.47;;;5.70;;
1410;SDS011;700;51.906;8.404;2024-03-23T09:25:36;12.93;;;3.57;;
1410;SDS011;700;51.906;8.404;2024-03-23T09:30:39;11.27;;;3.50;;
1410;SDS011;700;51.906;8.404;2024-03-23T09:35:43;11.37;;;3.97;;
1410;SDS011;700;51.906;8.404;2024-03-23T09:40:49;10.40;;;3.40;;
1410;SDS011;700;51.906;8.404;2024-03-23T09:45:53;7.00;;;2.73;;
1410;SDS011;700;51.906;8.404;2024-03-23T09:50:56;6.60;;;2.80;;
1410;SDS011;700;51.906;8.404;2024-03-23T09:55:59;8.43;;;2.80;;
1410;SDS011;700;51.906;8.404;2024-03-23T10:00:59;7.87;;;2.83;;
1410;SDS011;700;51.906;8.404;2024-03-23T10:06:03;6.80;;;3.50;;
1410;SDS011;700;51.906;8.404;2024-03-23T10:11:22;6.20;;;2.77;;
1410;SDS011;700;51.906;8.404;2024-03-23T10:16:25;6.60;;;3.00;;
1410;SDS011;700;51.906;8.404;2024-03-23T10:21:27;6.27;;;2.47;;
1410;SDS011;700;51.906;8.404;2024-03-23T10:26:32;3.77;;;1.73;;
1410;SDS011;700;51.906;8.404;2024-03-23T10:31:36;5.43;;;2.20;;
1410;SDS011;700;51.906;8.404;2024-03-23T10:36:37;5.43;;;2.20;;
1410;SDS011;700;51.906;8.404;2024-03-23T10:41:41;5.20;;;2.73;;
1410;SDS011;700;51.906;8.404;2024-03-23T10:46:47;7.23;;;2.60;;
1410;SDS011;700;51.906;8.404;2024-03-23T10:51:47;4.60;;;2.30;;
1410;SDS011;700;51.906;8.404;2024-03-23T10:56:56;7.93;;;2.77;;
1410;SDS011;700;51.906;8.404;2024-03-23T11:02:06;6.00;;;2.43;;
1410;SDS011;700;51.906;8.404;2024-03-23T11:12:29;5.07;;;2.40;;
1410;SDS011;700;51.906;8.404;2024-03-23T11:17:33;3.60;;;2.00;;
1410;SDS011;700;51.906;8.404;2024-03-23T11:27:37;4.97;;;2.20;;
1410;SDS011;700;51.906;8.404;2024-03-23T11:32:40;6.10;;;2.70;;
1410;SDS011;700;51.906;8.404;2024-03-23T11:37:42;5.90;;;3.37;;
1410;SDS011;700;51.906;8.404;2024-03-23T11:42:43;4.97;;;2.33;;
1410;SDS011;700;51.906;8.404;2024-03-23T11:47:46;7.90;;;2.80;;
1410;SDS011;700;51.906;8.404;2024-03-23T11:52:47;7.43;;;2.80;;
1410;SDS011;700;51.906;8.404;2024-03-23T11:57:50;6.53;;;2.33;;
1410;SDS011;700;51.906;8.404;2024-03-23T12:02:53;5.00;;;2.03;;
1410;SDS011;700;51.906;8.404;2024-03-23T12:07:56;6.23;;;2.80;;
1410;SDS011;700;51.906;8.404;2024-03-23T12:13:21;5.67;;;2.10;;
1410;SDS011;700;51.906;8.404;2024-03-23T12:18:25;9.50;;;2.47;;
1410;SDS011;700;51.906;8.404;2024-03-23T12:23:33;4.00;;;1.57;;
1410;SDS011;700;51.906;8.404;2024-03-23T12:28:42;4.43;;;1.00;;
1410;SDS011;700;51.906;8.404;2024-03-23T12:33:45;3.20;;;1.17;;
1410;SDS011;700;51.906;8.404;2024-03-23T12:38:48;2.20;;;1.03;;
1410;SDS011;700;51.906;8.404;2024-03-23T12:43:57;3.70;;;1.60;;
1410;SDS011;700;51.906;8.404;2024-03-23T12:49:00;4.23;;;1.30;;
1410;SDS011;700;51.906;8.404;2024-03-23T12:54:04;9.37;;;3.10;;
1410;SDS011;700;51.906;8.404;2024-03-23T12:59:07;2.10;;;1.40;;
1410;SDS011;700;51.906;8.404;2024-03-23T13:04:08;4.70;;;1.67;;
1410;SDS011;700;51.906;8.404;2024-03-23T13:09:09;4.40;;;1.20;;
1410;SDS011;700;51.906;8.404;2024-03-23T13:14:14;4.60;;;1.30;;
1410;SDS011;700;51.906;8.404;2024-03-23T13:19:16;2.20;;;1.13;;
1410;SDS011;700;51.906;8.404;2024-03-23T13:24:17;3.97;;;1.43;;
1410;SDS011;700;51.906;8.404;2024-03-23T13:29:18;3.70;;;1.40;;
1410;SDS011;700;51.906;8.404;2024-03-23T13:34:19;3.73;;;1.30;;
1410;SDS011;700;51.906;8.404;2024-03-23T13:39:22;2.23;;;1.27;;
1410;SDS011;700;51.906;8.404;2024-03-23T13:44:29;3.87;;;1.00;;
1410;SDS011;700;51.906;8.404;2024-03-23T13:49:30;8.10;;;4.03;;
1410;SDS011;700;51.906;8.404;2024-03-23T13:54:34;1.90;;;1.07;;
1410;SDS011;700;51.906;8.404;2024-03-23T13:59:35;3.63;;;1.10;;
1410;SDS011;700;51.906;8.404;2024-03-23T14:04:38;4.07;;;1.60;;
1410;SDS011;700;51.906;8.404;2024-03-23T14:09:41;2.23;;;1.40;;
1410;SDS011;700;51.906;8.404;2024-03-23T14:14:42;2.37;;;1.30;;
1410;SDS011;700;51.906;8.404;2024-03-23T14:19:47;4.10;;;2.20;;
1410;SDS011;700;51.906;8.404;2024-03-23T14:24:50;3.73;;;2.20;;
1410;SDS011;700;51.906;8.404;2024-03-23T14:29:50;5.50;;;1.90;;
1410;SDS011;700;51.906;8.404;2024-03-23T14:34:53;3.13;;;1.43;;
1410;SDS011;700;51.906;8.404;2024-03-23T14:39:56;3.97;;;1.97;;
1410;SDS011;700;51.906;8.404;2024-03-23T14:44:59;9.37;;;5.13;;
1410;SDS011;700;51.906;8.404;2024-03-23T14:50:02;4.90;;;2.20;;
1410;SDS011;700;51.906;8.404;2024-03-23T14:55:03;5.33;;;2.37;;
1410;SDS011;700;51.906;8.404;2024-03-23T15:00:06;7.17;;;2.37;;
1410;SDS011;700;51.906;8.404;2024-03-23T15:05:10;3.73;;;1.77;;
1410;SDS011;700;51.906;8.404;2024-03-23T15:10:13;3.27;;;1.57;;
1410;SDS011;700;51.906;8.404;2024-03-23T15:15:18;2.47;;;1.37;;
1410;SDS011;700;51.906;8.404;2024-03-23T15:20:19;2.67;;;1.30;;
1410;SDS011;700;51.906;8.404;2024-03-23T15:25:22;5.83;;;1.43;;
1410;SDS011;700;51.906;8.404;2024-03-23T15:30:26;3.43;;;1.40;;
1410;SDS011;700;51.906;8.404;2024-03-23T15:35:26;6.80;;;2.30;;
1410;SDS011;700;51.906;8.404;2024-03-23T15:40:32;5.10;;;1.83;;
1410;SDS011;700;51.906;8.404;2024-03-23T15:45:32;17.70;;;10.90;;
1410;SDS011;700;51.906;8.404;2024-03-23T15:50:35;5.80;;;2.10;;
1410;SDS011;700;51.906;8.404;2024-03-23T15:55:39;5.17;;;2.30;;
1410;SDS011;700;51.906;8.404;2024-03-23T16:00:39;2.73;;;1.70;;
1410;SDS011;700;51.906;8.404;2024-03-23T16:05:40;6.40;;;2.03;;
1410;SDS011;700;51.906;8.404;2024-03-23T16:10:50;8.17;;;2.53;;
1410;SDS011;700;51.906;8.404;2024-03-23T16:15:57;6.27;;;2.63;;
1410;SDS011;700;51.906;8.404;2024-03-23T16:21:07;2.87;;;1.70;;
1410;SDS011;700;51.906;8.404;2024-03-23T16:26:10;3.37;;;1.30;;
1410;SDS011;700;51.906;8.404;2024-03-23T16:31:16;3.40;;;1.53;;
1410;SDS011;700;51.906;8.404;2024-03-23T16:36:19;3.40;;;1.30;;
1410;SDS011;700;51.906;8.404;2024-03-23T16:41:19;5.37;;;1.27;;
1410;SDS011;700;51.906;8.404;2024-03-23T16:46:22;5.40;;;1.70;;
1410;SDS011;700;51.906;8.404;2024-03-23T16:51:23;3.80;;;1.30;;
1410;SDS011;700;51.906;8.404;2024-03-23T16:56:23;3.60;;;1.50;;
1410;SDS011;700;51.906;8.404;2024-03-23T17:01:24;6.23;;;3.10;;
1410;SDS011;700;51.906;8.404;2024-03-23T17:06:27;3.93;;;1.50;;
1410;SDS011;700;51.906;8.404;2024-03-23T17:11:27;11.63;;;4.77;;
1410;SDS011;700;51.906;8.404;2024-03-23T17:16:33;3.67;;;1.73;;
1410;SDS011;700;51.906;8.404;2024-03-23T17:21:35;5.50;;;1.30;;
1410;SDS011;700;51.906;8.404;2024-03-23T17:26:40;6.80;;;2.10;;
1410;SDS011;700;51.906;8.404;2024-03-23T17:31:41;4.73;;;1.90;;
1410;SDS011;700;51.906;8.404;2024-03-23T17:36:44;3.70;;;2.27;;
1410;SDS011;700;51.906;8.404;2024-03-23T17:41:45;5.43;;;2.60;;
1410;SDS011;700;51.906;8.404;2024-03-23T17:46:46;5.50;;;2.07;;
1410;SDS011;700;51.906;8.404;2024-03-23T17:51:46;3.03;;;1.30;;
1410;SDS011;700;51.906;8.404;2024-03-23T17:56:49;3.30;;;1.37;;
1410;SDS011;700;51.906;8.404;2024-03-23T18:01:53;3.73;;;1.53;;
1410;SDS011;700;51.906;8.404;2024-03-23T18:07:03;3.60;;;1.10;;
1410;SDS011;700;51.906;8.404;2024-03-23T18:12:15;6.53;;;1.73;;
1410;SDS011;700;51.906;8.404;2024-03-23T18:17:19;2.60;;;1.03;;
1410;SDS011;700;51.906;8.404;2024-03-23T18:22:20;4.80;;;1.40;;
1410;SDS011;700;51.906;8.404;2024-03-23T18:27:23;5.17;;;1.53;;
1410;SDS011;700;51.906;8.404;2024-03-23T18:32:23;4.00;;;1.60;;
1410;SDS011;700;51.906;8.404;2024-03-23T18:37:24;3.87;;;1.40;;
1410;SDS011;700;51.906;8.404;2024-03-23T18:42:24;3.53;;;1.50;;
1410;SDS011;700;51.906;8.404;2024-03-23T18:47:25;3.37;;;1.37;;
1410;SDS011;700;51.906;8.404;2024-03-23T18:52:26;4.17;;;1.10;;
1410;SDS011;700;51.906;8.404;2024-03-23T18:57:26;2.80;;;1.27;;
1410;SDS011;700;51.906;8.404;2024-03-23T19:02:28;1.93;;;1.13;;
1410;SDS011;700;51.906;8.404;2024-03-23T19:07:31;4.20;;;1.20;;
1410;SDS011;700;51.906;8.404;2024-03-23T19:12:32;5.53;;;1.30;;
1410;SDS011;700;51.906;8.404;2024-03-23T19:17:33;3.20;;;1.37;;
1410;SDS011;700;51.906;8.404;2024-03-23T19:22:35;2.27;;;1.33;;
1410;SDS011;700;51.906;8.404;2024-03-23T19:27:38;3.20;;;1.57;;
1410;SDS011;700;51.906;8.404;2024-03-23T19:32:38;6.43;;;1.70;;
1410;SDS011;700;51.906;8.404;2024-03-23T19:37:39;9.20;;;2.40;;
1410;SDS011;700;51.906;8.404;2024-03-23T19:42:43;4.63;;;2.00;;
1410;SDS011;700;51.906;8.404;2024-03-23T19:47:46;5.70;;;2.33;;
1410;SDS011;700;51.906;8.404;2024-03-23T19:52:56;4.40;;;2.47;;
1410;SDS011;700;51.906;8.404;2024-03-23T19:58:01;4.07;;;2.60;;
1410;SDS011;700;51.906;8.404;2024-03-23T20:03:03;6.77;;;2.43;;
1410;SDS011;700;51.906;8.404;2024-03-23T20:08:06;3.73;;;2.30;;
1410;SDS011;700;51.906;8.404;2024-03-23T20:13:07;5.20;;;2.40;;
1410;SDS011;700;51.906;8.404;2024-03-23T20:18:08;3.30;;;2.17;;
1410;SDS011;700;51.906;8.404;2024-03-23T20:23:09;4.50;;;2.10;;
1410;SDS011;700;51.906;8.404;2024-03-23T20:28:12;3.93;;;2.13;;
1410;SDS011;700;51.906;8.404;2024-03-23T20:33:13;4.23;;;2.30;;
1410;SDS011;700;51.906;8.404;2024-03-23T20:38:16;4.43;;;2.33;;
1410;SDS011;700;51.906;8.404;2024-03-23T20:43:20;3.13;;;2.23;;
1410;SDS011;700;51.906;8.404;2024-03-23T20:48:21;4.43;;;2.13;;
1410;SDS011;700;51.906;8.404;2024-03-23T20:53:25;2.87;;;1.90;;
1410;SDS011;700;51.906;8.404;2024-03-23T20:58:28;4.57;;;2.50;;
1410;SDS011;700;51.906;8.404;2024-03-23T21:03:30;7.10;;;2.70;;
1410;SDS011;700;51.906;8.404;2024-03-23T21:08:34;4.27;;;2.60;;
1410;SDS011;700;51.906;8.404;2024-03-23T21:13:35;4.90;;;2.83;;
1410;SDS011;700;51.906;8.404;2024-03-23T21:18:36;5.20;;;3.37;;
1410;SDS011;700;51.906;8.404;2024-03-23T21:23:38;4.50;;;2.60;;
1410;SDS011;700;51.906;8.404;2024-03-23T21:28:39;6.10;;;3.13;;
1410;SDS011;700;51.906;8.404;2024-03-23T21:33:40;5.80;;;2.90;;
1410;SDS011;700;51.906;8.404;2024-03-23T21:38:45;6.03;;;2.70;;
1410;SDS011;700;51.906;8.404;2024-03-23T21:43:47;8.20;;;3.80;;
1410;SDS011;700;51.906;8.404;2024-03-23T21:48:48;7.03;;;3.17;;
1410;SDS011;700;51.906;8.404;2024-03-23T21:53:49;8.40;;;3.50;;
1410;SDS011;700;51.906;8.404;2024-03-23T21:58:50;4.30;;;3.87;;
1410;SDS011;700;51.906;8.404;2024-03-23T22:03:51;5.10;;;3.27;;
1410;SDS011;700;51.906;8.404;2024-03-23T22:08:54;8.50;;;5.20;;
1410;SDS011;700;51.906;8.404;2024-03-23T22:13:55;7.00;;;4.20;;
1410;SDS011;700;51.906;8.404;2024-03-23T22:18:56;6.00;;;3.33;;
1410;SDS011;700;51.906;8.404;2024-03-23T22:23:57;7.50;;;3.87;;
1410;SDS011;700;51.906;8.404;2024-03-23T22:29:02;6.63;;;3.30;;
1410;SDS011;700;51.906;8.404;2024-03-23T22:34:03;6.00;;;3.90;;
1410;SDS011;700;51.906;8.404;2024-03-23T22:39:04;5.63;;;3.50;;
1410;SDS011;700;51.906;8.404;2024-03-23T22:44:09;6.13;;;3.70;;
1410;SDS011;700;51.906;8.404;2024-03-23T22:49:12;8.70;;;4.50;;
1410;SDS011;700;51.906;8.404;2024-03-23T22:54:17;8.40;;;5.40;;
1410;SDS011;700;51.906;8.404;2024-03-23T22:59:18;8.63;;;5.37;;
1410;SDS011;700;51.906;8.404;2024-03-23T23:04:21;8.67;;;5.57;;
1410;SDS011;700;51.906;8.404;2024-03-23T23:09:21;11.07;;;6.13;;
1410;SDS011;700;51.906;8.404;2024-03-23T23:14:22;9.53;;;6.83;;
1410;SDS011;700;51.906;8.404;2024-03-23T23:19:23;7.03;;;5.70;;
1410;SDS011;700;51.906;8.404;2024-03-23T23:24:26;8.23;;;6.70;;
1410;SDS011;700;51.906;8.404;2024-03-23T23:29:26;8.97;;;6.23;;
1410;SDS011;700;51.906;8.404;2024-03-23T23:34:27;10.40;;;7.30;;
1410;SDS011;700;51.906;8.404;2024-03-23T23:39:28;10.40;;;7.77;;
1410;SDS011;700;51.906;8.404;2024-03-23T23:44:28;13.03;;;8.00;;
1410;SDS011;700;51.906;8.404;2024-03-23T23:49:29;14.40;;;8.23;;
1410;SDS011;700;51.906;8.404;2024-03-23T23:54:29;10.40;;;9.10;;
1410;SDS011;700;51.906;8.404;2024-03-23T23:59:30;10.30;;;7.23;;
